sensor_id;sensor_type;location;lat;lon;timestamp;P1;durP1;ratioP1;P2;durP2;ratioP2
77018;SDS011;66044;53.142;17.962;2023-05-18T00:00:06;10.40;;;2.20;;
77018;SDS011;66044;53.142;17.962;2023-05-18T00:02:56;7.20;;;1.60;;
77018;SDS011;66044;53.142;17.962;2023-05-18T00:05:23;6.60;;;1.80;;
77018;SDS011;66044;53.142;17.962;2023-05-18T00:07:49;7.60;;;2.10;;
77018;SDS011;66044;53.142;17.962;2023-05-18T00:10:16;7.60;;;1.60;;
77018;SDS011;66044;53.142;17.962;2023-05-18T00:12:42;6.70;;;2.00;;
77018;SDS011;66044;53.142;17.962;2023-05-18T00:15:09;10.00;;;2.70;;
77018;SDS011;66044;53.142;17.962;2023-05-18T00:17:35;10.10;;;3.20;;
77018;SDS011;66044;53.142;17.962;2023-05-18T00:20:02;9.30;;;2.50;;
77018;SDS011;66044;53.142;17.962;2023-05-18T00:22:30;9.30;;;2.60;;
77018;SDS011;66044;53.142;17.962;2023-05-18T00:24:56;6.10;;;2.10;;
77018;SDS011;66044;53.142;17.962;2023-05-18T00:27:23;7.40;;;2.20;;
77018;SDS011;66044;53.142;17.962;2023-05-18T00:29:49;7.80;;;2.20;;
77018;SDS011;66044;53.142;17.962;2023-05-18T00:32:15;9.70;;;2.50;;
77018;SDS011;66044;53.142;17.962;2023-05-18T00:34:42;7.50;;;2.00;;
77018;SDS011;66044;53.142;17.962;2023-05-18T00:37:08;8.70;;;2.00;;
77018;SDS011;66044;53.142;17.962;2023-05-18T00:39:35;7.80;;;1.80;;
77018;SDS011;66044;53.142;17.962;2023-05-18T00:42:01;9.20;;;2.30;;
77018;SDS011;66044;53.142;17.962;2023-05-18T00:44:28;10.20;;;2.20;;
77018;SDS011;66044;53.142;17.962;2023-05-18T00:46:54;7.50;;;1.90;;
77018;SDS011;66044;53.142;17.962;2023-05-18T00:49:20;8.70;;;2.40;;
77018;SDS011;66044;53.142;17.962;2023-05-18T00:51:47;9.30;;;2.20;;
77018;SDS011;66044;53.142;17.962;2023-05-18T00:54:14;9.20;;;2.30;;
77018;SDS011;66044;53.142;17.962;2023-05-18T00:56:41;9.00;;;2.30;;
77018;SDS011;66044;53.142;17.962;2023-05-18T00:59:11;8.30;;;1.80;;
77018;SDS011;66044;53.142;17.962;2023-05-18T01:01:37;8.40;;;1.90;;
77018;SDS011;66044;53.142;17.962;2023-05-18T01:04:08;6.70;;;1.60;;
77018;SDS011;66044;53.142;17.962;2023-05-18T01:06:35;7.60;;;1.90;;
77018;SDS011;66044;53.142;17.962;2023-05-18T01:09:02;7.00;;;1.60;;
77018;SDS011;66044;53.142;17.962;2023-05-18T01:22:32;7.30;;;2.10;;
77018;SDS011;66044;53.142;17.962;2023-05-18T01:25:04;7.10;;;2.00;;
77018;SDS011;66044;53.142;17.962;2023-05-18T01:27:44;8.10;;;2.30;;
77018;SDS011;66044;53.142;17.962;2023-05-18T01:30:12;7.30;;;2.20;;
77018;SDS011;66044;53.142;17.962;2023-05-18T01:32:41;9.50;;;2.10;;
77018;SDS011;66044;53.142;17.962;2023-05-18T01:35:08;8.00;;;2.00;;
77018;SDS011;66044;53.142;17.962;2023-05-18T01:37:34;8.00;;;2.10;;
77018;SDS011;66044;53.142;17.962;2023-05-18T01:40:02;7.30;;;1.90;;
77018;SDS011;66044;53.142;17.962;2023-05-18T01:42:30;7.30;;;1.80;;
77018;SDS011;66044;53.142;17.962;2023-05-18T01:45:06;9.50;;;2.20;;
77018;SDS011;66044;53.142;17.962;2023-05-18T01:47:39;6.20;;;2.10;;
77018;SDS011;66044;53.142;17.962;2023-05-18T01:50:14;9.10;;;2.20;;
77018;SDS011;66044;53.142;17.962;2023-05-18T01:52:45;11.60;;;2.70;;
77018;SDS011;66044;53.142;17.962;2023-05-18T01:55:17;6.60;;;2.00;;
77018;SDS011;66044;53.142;17.962;2023-05-18T01:57:46;6.20;;;2.10;;
77018;SDS011;66044;53.142;17.962;2023-05-18T02:00:16;7.80;;;2.60;;
77018;SDS011;66044;53.142;17.962;2023-05-18T02:02:43;6.20;;;2.00;;
77018;SDS011;66044;53.142;17.962;2023-05-18T02:05:10;6.80;;;1.70;;
77018;SDS011;66044;53.142;17.962;2023-05-18T02:07:39;8.00;;;2.00;;
77018;SDS011;66044;53.142;17.962;2023-05-18T02:10:09;8.60;;;2.80;;
77018;SDS011;66044;53.142;17.962;2023-05-18T02:12:36;10.20;;;2.70;;
77018;SDS011;66044;53.142;17.962;2023-05-18T02:15:02;9.60;;;2.40;;
77018;SDS011;66044;53.142;17.962;2023-05-18T02:17:34;7.10;;;2.00;;
77018;SDS011;66044;53.142;17.962;2023-05-18T02:20:06;8.20;;;2.20;;
77018;SDS011;66044;53.142;17.962;2023-05-18T02:22:33;8.00;;;2.30;;
77018;SDS011;66044;53.142;17.962;2023-05-18T02:25:00;8.70;;;2.10;;
77018;SDS011;66044;53.142;17.962;2023-05-18T02:27:27;8.80;;;2.00;;
77018;SDS011;66044;53.142;17.962;2023-05-18T02:29:53;6.80;;;2.10;;
77018;SDS011;66044;53.142;17.962;2023-05-18T02:32:20;10.80;;;2.40;;
77018;SDS011;66044;53.142;17.962;2023-05-18T02:34:50;7.60;;;1.90;;
77018;SDS011;66044;53.142;17.962;2023-05-18T02:37:17;7.20;;;1.80;;
77018;SDS011;66044;53.142;17.962;2023-05-18T02:39:44;6.40;;;1.50;;
77018;SDS011;66044;53.142;17.962;2023-05-18T02:42:11;7.40;;;2.10;;
77018;SDS011;66044;53.142;17.962;2023-05-18T02:44:38;8.20;;;1.80;;
77018;SDS011;66044;53.142;17.962;2023-05-18T02:47:05;7.20;;;2.00;;
77018;SDS011;66044;53.142;17.962;2023-05-18T02:49:31;6.90;;;1.60;;
77018;SDS011;66044;53.142;17.962;2023-05-18T02:51:58;8.20;;;2.20;;
77018;SDS011;66044;53.142;17.962;2023-05-18T02:54:24;6.10;;;1.30;;
77018;SDS011;66044;53.142;17.962;2023-05-18T02:56:51;6.00;;;1.20;;
77018;SDS011;66044;53.142;17.962;2023-05-18T02:59:21;7.00;;;1.80;;
77018;SDS011;66044;53.142;17.962;2023-05-18T03:01:48;5.80;;;1.30;;
77018;SDS011;66044;53.142;17.962;2023-05-18T03:04:14;9.10;;;1.40;;
77018;SDS011;66044;53.142;17.962;2023-05-18T03:06:42;5.30;;;1.10;;
77018;SDS011;66044;53.142;17.962;2023-05-18T03:09:11;6.90;;;1.40;;
77018;SDS011;66044;53.142;17.962;2023-05-18T03:11:38;7.00;;;1.60;;
77018;SDS011;66044;53.142;17.962;2023-05-18T03:14:04;6.50;;;1.40;;
77018;SDS011;66044;53.142;17.962;2023-05-18T03:16:31;6.80;;;1.40;;
77018;SDS011;66044;53.142;17.962;2023-05-18T03:18:57;6.00;;;1.40;;
77018;SDS011;66044;53.142;17.962;2023-05-18T03:21:26;6.40;;;1.10;;
77018;SDS011;66044;53.142;17.962;2023-05-18T03:23:58;6.80;;;1.60;;
77018;SDS011;66044;53.142;17.962;2023-05-18T03:26:25;6.50;;;1.60;;
77018;SDS011;66044;53.142;17.962;2023-05-18T03:28:52;8.40;;;1.90;;
77018;SDS011;66044;53.142;17.962;2023-05-18T03:31:18;4.90;;;1.10;;
77018;SDS011;66044;53.142;17.962;2023-05-18T03:33:44;5.00;;;1.40;;
77018;SDS011;66044;53.142;17.962;2023-05-18T03:36:11;8.30;;;1.40;;
77018;SDS011;66044;53.142;17.962;2023-05-18T03:38:38;6.00;;;1.50;;
77018;SDS011;66044;53.142;17.962;2023-05-18T03:41:04;6.20;;;1.70;;
77018;SDS011;66044;53.142;17.962;2023-05-18T03:43:31;6.50;;;1.50;;
77018;SDS011;66044;53.142;17.962;2023-05-18T03:45:57;6.00;;;1.60;;
77018;SDS011;66044;53.142;17.962;2023-05-18T03:48:24;6.20;;;1.30;;
77018;SDS011;66044;53.142;17.962;2023-05-18T03:50:50;6.30;;;1.30;;
77018;SDS011;66044;53.142;17.962;2023-05-18T03:53:17;5.70;;;1.10;;
77018;SDS011;66044;53.142;17.962;2023-05-18T03:55:44;4.70;;;1.30;;
77018;SDS011;66044;53.142;17.962;2023-05-18T03:58:11;5.00;;;1.40;;
77018;SDS011;66044;53.142;17.962;2023-05-18T04:00:38;6.10;;;1.40;;
77018;SDS011;66044;53.142;17.962;2023-05-18T04:03:04;4.60;;;1.30;;
77018;SDS011;66044;53.142;17.962;2023-05-18T04:05:31;5.50;;;1.50;;
77018;SDS011;66044;53.142;17.962;2023-05-18T04:07:58;7.80;;;1.70;;
77018;SDS011;66044;53.142;17.962;2023-05-18T04:10:25;6.60;;;1.40;;
77018;SDS011;66044;53.142;17.962;2023-05-18T04:12:51;6.80;;;1.60;;
77018;SDS011;66044;53.142;17.962;2023-05-18T04:15:18;5.20;;;1.20;;
77018;SDS011;66044;53.142;17.962;2023-05-18T04:17:44;7.90;;;1.50;;
77018;SDS011;66044;53.142;17.962;2023-05-18T04:20:11;5.20;;;1.40;;
77018;SDS011;66044;53.142;17.962;2023-05-18T04:22:40;8.70;;;1.60;;
77018;SDS011;66044;53.142;17.962;2023-05-18T04:25:13;13.90;;;4.00;;
77018;SDS011;66044;53.142;17.962;2023-05-18T04:27:40;17.70;;;5.60;;
77018;SDS011;66044;53.142;17.962;2023-05-18T04:30:08;16.50;;;5.00;;
77018;SDS011;66044;53.142;17.962;2023-05-18T04:32:38;12.80;;;3.10;;
77018;SDS011;66044;53.142;17.962;2023-05-18T04:35:08;9.80;;;2.30;;
77018;SDS011;66044;53.142;17.962;2023-05-18T04:37:36;7.30;;;1.80;;
77018;SDS011;66044;53.142;17.962;2023-05-18T04:40:06;6.20;;;1.60;;
77018;SDS011;66044;53.142;17.962;2023-05-18T04:42:33;5.90;;;1.50;;
77018;SDS011;66044;53.142;17.962;2023-05-18T04:45:00;6.30;;;1.40;;
77018;SDS011;66044;53.142;17.962;2023-05-18T04:47:30;7.00;;;1.50;;
77018;SDS011;66044;53.142;17.962;2023-05-18T04:49:57;11.10;;;1.80;;
77018;SDS011;66044;53.142;17.962;2023-05-18T04:52:24;7.90;;;2.10;;
77018;SDS011;66044;53.142;17.962;2023-05-18T04:54:51;8.90;;;1.90;;
77018;SDS011;66044;53.142;17.962;2023-05-18T04:57:17;9.60;;;1.70;;
77018;SDS011;66044;53.142;17.962;2023-05-18T04:59:44;6.70;;;1.70;;
77018;SDS011;66044;53.142;17.962;2023-05-18T05:02:12;8.50;;;2.30;;
77018;SDS011;66044;53.142;17.962;2023-05-18T05:04:39;10.50;;;1.80;;
77018;SDS011;66044;53.142;17.962;2023-05-18T05:07:06;10.60;;;1.90;;
77018;SDS011;66044;53.142;17.962;2023-05-18T05:09:33;5.50;;;1.30;;
77018;SDS011;66044;53.142;17.962;2023-05-18T05:11:59;10.20;;;2.00;;
77018;SDS011;66044;53.142;17.962;2023-05-18T05:14:26;6.40;;;1.40;;
77018;SDS011;66044;53.142;17.962;2023-05-18T05:16:52;6.80;;;1.30;;
77018;SDS011;66044;53.142;17.962;2023-05-18T05:19:19;7.70;;;1.50;;
77018;SDS011;66044;53.142;17.962;2023-05-18T05:21:46;7.40;;;1.20;;
77018;SDS011;66044;53.142;17.962;2023-05-18T05:24:14;6.30;;;1.60;;
77018;SDS011;66044;53.142;17.962;2023-05-18T05:26:41;7.50;;;1.20;;
77018;SDS011;66044;53.142;17.962;2023-05-18T05:29:07;8.90;;;1.50;;
77018;SDS011;66044;53.142;17.962;2023-05-18T05:31:34;5.30;;;1.00;;
77018;SDS011;66044;53.142;17.962;2023-05-18T05:34:00;6.70;;;1.40;;
77018;SDS011;66044;53.142;17.962;2023-05-18T05:36:27;6.60;;;1.20;;
77018;SDS011;66044;53.142;17.962;2023-05-18T05:38:53;7.20;;;1.30;;
77018;SDS011;66044;53.142;17.962;2023-05-18T05:41:19;7.00;;;1.30;;
77018;SDS011;66044;53.142;17.962;2023-05-18T05:43:47;6.60;;;1.20;;
77018;SDS011;66044;53.142;17.962;2023-05-18T05:46:14;5.20;;;1.20;;
77018;SDS011;66044;53.142;17.962;2023-05-18T05:48:40;4.20;;;0.80;;
77018;SDS011;66044;53.142;17.962;2023-05-18T05:51:07;6.10;;;1.10;;
77018;SDS011;66044;53.142;17.962;2023-05-18T05:53:33;6.40;;;1.10;;
77018;SDS011;66044;53.142;17.962;2023-05-18T05:56:00;6.70;;;1.30;;
77018;SDS011;66044;53.142;17.962;2023-05-18T05:58:26;5.80;;;1.00;;
77018;SDS011;66044;53.142;17.962;2023-05-18T06:00:52;7.10;;;1.10;;
77018;SDS011;66044;53.142;17.962;2023-05-18T06:03:19;5.40;;;1.20;;
77018;SDS011;66044;53.142;17.962;2023-05-18T06:05:46;6.30;;;1.00;;
77018;SDS011;66044;53.142;17.962;2023-05-18T06:08:12;5.80;;;1.20;;
77018;SDS011;66044;53.142;17.962;2023-05-18T06:10:39;10.80;;;2.90;;
77018;SDS011;66044;53.142;17.962;2023-05-18T06:13:06;7.10;;;1.60;;
77018;SDS011;66044;53.142;17.962;2023-05-18T06:15:32;21.20;;;5.80;;
77018;SDS011;66044;53.142;17.962;2023-05-18T06:17:59;8.60;;;1.90;;
77018;SDS011;66044;53.142;17.962;2023-05-18T06:20:25;4.80;;;1.20;;
77018;SDS011;66044;53.142;17.962;2023-05-18T06:22:52;6.10;;;1.20;;
77018;SDS011;66044;53.142;17.962;2023-05-18T06:25:18;6.20;;;0.90;;
77018;SDS011;66044;53.142;17.962;2023-05-18T06:27:45;4.40;;;0.90;;
77018;SDS011;66044;53.142;17.962;2023-05-18T06:30:11;5.10;;;0.80;;
77018;SDS011;66044;53.142;17.962;2023-05-18T06:32:38;4.10;;;0.80;;
77018;SDS011;66044;53.142;17.962;2023-05-18T06:35:05;4.80;;;0.80;;
77018;SDS011;66044;53.142;17.962;2023-05-18T06:37:32;4.50;;;0.70;;
77018;SDS011;66044;53.142;17.962;2023-05-18T06:39:59;7.60;;;1.20;;
77018;SDS011;66044;53.142;17.962;2023-05-18T06:42:25;5.80;;;1.00;;
77018;SDS011;66044;53.142;17.962;2023-05-18T06:44:52;3.80;;;0.80;;
77018;SDS011;66044;53.142;17.962;2023-05-18T06:47:20;4.00;;;1.10;;
77018;SDS011;66044;53.142;17.962;2023-05-18T06:49:46;4.50;;;0.80;;
77018;SDS011;66044;53.142;17.962;2023-05-18T06:52:12;4.00;;;0.80;;
77018;SDS011;66044;53.142;17.962;2023-05-18T06:54:39;4.00;;;0.70;;
77018;SDS011;66044;53.142;17.962;2023-05-18T06:57:06;5.00;;;1.00;;
77018;SDS011;66044;53.142;17.962;2023-05-18T06:59:32;3.40;;;0.60;;
77018;SDS011;66044;53.142;17.962;2023-05-18T07:01:59;4.10;;;0.80;;
77018;SDS011;66044;53.142;17.962;2023-05-18T07:04:26;4.00;;;0.70;;
77018;SDS011;66044;53.142;17.962;2023-05-18T07:06:52;4.10;;;0.70;;
77018;SDS011;66044;53.142;17.962;2023-05-18T07:09:22;3.20;;;0.60;;
77018;SDS011;66044;53.142;17.962;2023-05-18T07:11:50;3.10;;;0.70;;
77018;SDS011;66044;53.142;17.962;2023-05-18T07:14:17;3.20;;;0.60;;
77018;SDS011;66044;53.142;17.962;2023-05-18T07:16:43;2.90;;;0.50;;
77018;SDS011;66044;53.142;17.962;2023-05-18T07:19:12;3.20;;;0.40;;
77018;SDS011;66044;53.142;17.962;2023-05-18T07:21:39;2.60;;;0.60;;
77018;SDS011;66044;53.142;17.962;2023-05-18T07:24:06;2.30;;;0.30;;
77018;SDS011;66044;53.142;17.962;2023-05-18T07:26:32;2.40;;;0.40;;
77018;SDS011;66044;53.142;17.962;2023-05-18T07:28:59;2.20;;;0.50;;
77018;SDS011;66044;53.142;17.962;2023-05-18T07:31:25;2.90;;;0.50;;
77018;SDS011;66044;53.142;17.962;2023-05-18T07:33:52;2.60;;;0.40;;
77018;SDS011;66044;53.142;17.962;2023-05-18T07:36:18;2.70;;;0.30;;
77018;SDS011;66044;53.142;17.962;2023-05-18T07:38:46;1.10;;;0.30;;
77018;SDS011;66044;53.142;17.962;2023-05-18T07:41:12;2.10;;;0.40;;
77018;SDS011;66044;53.142;17.962;2023-05-18T07:43:39;2.70;;;0.30;;
77018;SDS011;66044;53.142;17.962;2023-05-18T07:46:05;2.10;;;0.30;;
77018;SDS011;66044;53.142;17.962;2023-05-18T07:48:32;2.40;;;0.40;;
77018;SDS011;66044;53.142;17.962;2023-05-18T07:50:58;2.40;;;0.30;;
77018;SDS011;66044;53.142;17.962;2023-05-18T07:53:24;4.60;;;0.40;;
77018;SDS011;66044;53.142;17.962;2023-05-18T07:55:51;2.30;;;0.40;;
77018;SDS011;66044;53.142;17.962;2023-05-18T07:58:17;2.60;;;0.30;;
77018;SDS011;66044;53.142;17.962;2023-05-18T08:00:44;2.30;;;0.40;;
77018;SDS011;66044;53.142;17.962;2023-05-18T08:03:11;1.70;;;0.40;;
77018;SDS011;66044;53.142;17.962;2023-05-18T08:05:37;2.20;;;0.40;;
77018;SDS011;66044;53.142;17.962;2023-05-18T08:08:04;2.60;;;0.50;;
77018;SDS011;66044;53.142;17.962;2023-05-18T08:10:30;2.60;;;0.40;;
77018;SDS011;66044;53.142;17.962;2023-05-18T08:12:57;2.70;;;0.40;;
77018;SDS011;66044;53.142;17.962;2023-05-18T08:15:23;2.80;;;0.60;;
77018;SDS011;66044;53.142;17.962;2023-05-18T08:17:50;4.00;;;0.50;;
77018;SDS011;66044;53.142;17.962;2023-05-18T08:20:17;3.30;;;0.70;;
77018;SDS011;66044;53.142;17.962;2023-05-18T08:22:44;2.80;;;0.50;;
77018;SDS011;66044;53.142;17.962;2023-05-18T08:25:10;3.00;;;0.60;;
77018;SDS011;66044;53.142;17.962;2023-05-18T08:27:37;3.50;;;0.60;;
77018;SDS011;66044;53.142;17.962;2023-05-18T08:30:03;2.60;;;0.60;;
77018;SDS011;66044;53.142;17.962;2023-05-18T08:32:30;3.90;;;0.70;;
77018;SDS011;66044;53.142;17.962;2023-05-18T08:34:57;2.80;;;0.40;;
77018;SDS011;66044;53.142;17.962;2023-05-18T08:37:23;3.10;;;0.70;;
77018;SDS011;66044;53.142;17.962;2023-05-18T08:39:54;4.00;;;0.90;;
77018;SDS011;66044;53.142;17.962;2023-05-18T08:42:21;3.20;;;0.70;;
77018;SDS011;66044;53.142;17.962;2023-05-18T08:47:43;3.10;;;0.70;;
77018;SDS011;66044;53.142;17.962;2023-05-18T08:50:10;2.80;;;0.60;;
77018;SDS011;66044;53.142;17.962;2023-05-18T08:52:41;4.30;;;0.60;;
77018;SDS011;66044;53.142;17.962;2023-05-18T08:55:12;1.90;;;0.50;;
77018;SDS011;66044;53.142;17.962;2023-05-18T08:57:39;3.40;;;0.80;;
77018;SDS011;66044;53.142;17.962;2023-05-18T09:00:09;5.30;;;0.90;;
77018;SDS011;66044;53.142;17.962;2023-05-18T09:02:37;4.20;;;0.90;;
77018;SDS011;66044;53.142;17.962;2023-05-18T09:05:05;4.30;;;0.70;;
77018;SDS011;66044;53.142;17.962;2023-05-18T09:07:32;3.20;;;0.70;;
77018;SDS011;66044;53.142;17.962;2023-05-18T09:09:59;4.60;;;0.90;;
77018;SDS011;66044;53.142;17.962;2023-05-18T09:12:27;4.20;;;0.60;;
77018;SDS011;66044;53.142;17.962;2023-05-18T09:14:55;3.60;;;0.70;;
77018;SDS011;66044;53.142;17.962;2023-05-18T09:17:22;3.90;;;0.80;;
77018;SDS011;66044;53.142;17.962;2023-05-18T09:19:48;5.30;;;0.70;;
77018;SDS011;66044;53.142;17.962;2023-05-18T09:22:15;3.30;;;0.60;;
77018;SDS011;66044;53.142;17.962;2023-05-18T09:24:41;3.20;;;0.60;;
77018;SDS011;66044;53.142;17.962;2023-05-18T09:27:08;3.60;;;0.80;;
77018;SDS011;66044;53.142;17.962;2023-05-18T09:29:35;4.50;;;0.70;;
77018;SDS011;66044;53.142;17.962;2023-05-18T09:32:24;4.60;;;0.90;;
77018;SDS011;66044;53.142;17.962;2023-05-18T09:34:51;3.60;;;0.70;;
77018;SDS011;66044;53.142;17.962;2023-05-18T09:37:19;4.20;;;0.80;;
77018;SDS011;66044;53.142;17.962;2023-05-18T09:39:59;4.20;;;0.90;;
77018;SDS011;66044;53.142;17.962;2023-05-18T09:45:19;3.60;;;0.80;;
77018;SDS011;66044;53.142;17.962;2023-05-18T09:47:49;3.70;;;0.80;;
77018;SDS011;66044;53.142;17.962;2023-05-18T09:50:19;4.20;;;0.80;;
77018;SDS011;66044;53.142;17.962;2023-05-18T09:52:46;6.00;;;1.30;;
77018;SDS011;66044;53.142;17.962;2023-05-18T09:55:14;3.90;;;0.80;;
77018;SDS011;66044;53.142;17.962;2023-05-18T09:57:42;3.70;;;0.90;;
77018;SDS011;66044;53.142;17.962;2023-05-18T10:00:11;5.30;;;0.80;;
77018;SDS011;66044;53.142;17.962;2023-05-18T10:02:40;4.00;;;0.80;;
77018;SDS011;66044;53.142;17.962;2023-05-18T10:05:17;4.70;;;0.80;;
77018;SDS011;66044;53.142;17.962;2023-05-18T10:07:47;3.50;;;0.80;;
77018;SDS011;66044;53.142;17.962;2023-05-18T10:10:16;3.40;;;0.90;;
77018;SDS011;66044;53.142;17.962;2023-05-18T10:12:44;3.90;;;0.70;;
77018;SDS011;66044;53.142;17.962;2023-05-18T10:15:15;2.90;;;0.60;;
77018;SDS011;66044;53.142;17.962;2023-05-18T10:17:45;3.90;;;0.60;;
77018;SDS011;66044;53.142;17.962;2023-05-18T10:20:16;3.40;;;0.60;;
77018;SDS011;66044;53.142;17.962;2023-05-18T10:22:45;3.20;;;0.50;;
77018;SDS011;66044;53.142;17.962;2023-05-18T10:25:22;3.70;;;0.70;;
77018;SDS011;66044;53.142;17.962;2023-05-18T10:27:54;3.50;;;0.70;;
77018;SDS011;66044;53.142;17.962;2023-05-18T10:30:22;2.70;;;0.60;;
77018;SDS011;66044;53.142;17.962;2023-05-18T10:32:48;3.40;;;0.70;;
77018;SDS011;66044;53.142;17.962;2023-05-18T10:35:17;3.90;;;0.80;;
77018;SDS011;66044;53.142;17.962;2023-05-18T10:37:44;5.90;;;0.80;;
77018;SDS011;66044;53.142;17.962;2023-05-18T10:40:16;3.40;;;0.60;;
77018;SDS011;66044;53.142;17.962;2023-05-18T10:42:42;2.00;;;0.50;;
77018;SDS011;66044;53.142;17.962;2023-05-18T10:45:10;4.40;;;0.80;;
77018;SDS011;66044;53.142;17.962;2023-05-18T10:47:37;3.30;;;0.70;;
77018;SDS011;66044;53.142;17.962;2023-05-18T10:50:05;3.40;;;0.70;;
77018;SDS011;66044;53.142;17.962;2023-05-18T10:52:32;4.80;;;0.70;;
77018;SDS011;66044;53.142;17.962;2023-05-18T10:55:00;2.80;;;0.70;;
77018;SDS011;66044;53.142;17.962;2023-05-18T10:57:29;3.10;;;0.60;;
77018;SDS011;66044;53.142;17.962;2023-05-18T10:59:59;3.20;;;0.60;;
77018;SDS011;66044;53.142;17.962;2023-05-18T11:02:26;2.80;;;0.60;;
77018;SDS011;66044;53.142;17.962;2023-05-18T11:04:53;3.40;;;0.70;;
77018;SDS011;66044;53.142;17.962;2023-05-18T11:07:20;2.20;;;0.50;;
77018;SDS011;66044;53.142;17.962;2023-05-18T11:09:47;2.90;;;0.50;;
77018;SDS011;66044;53.142;17.962;2023-05-18T11:12:17;3.50;;;0.70;;
77018;SDS011;66044;53.142;17.962;2023-05-18T11:14:50;2.30;;;0.60;;
77018;SDS011;66044;53.142;17.962;2023-05-18T11:17:22;2.60;;;0.60;;
77018;SDS011;66044;53.142;17.962;2023-05-18T11:22:49;2.20;;;0.50;;
77018;SDS011;66044;53.142;17.962;2023-05-18T11:27:54;3.20;;;0.70;;
77018;SDS011;66044;53.142;17.962;2023-05-18T11:38:44;3.90;;;0.80;;
77018;SDS011;66044;53.142;17.962;2023-05-18T11:44:19;4.20;;;0.60;;
77018;SDS011;66044;53.142;17.962;2023-05-18T11:46:58;5.70;;;0.90;;
77018;SDS011;66044;53.142;17.962;2023-05-18T11:49:29;2.50;;;0.60;;
77018;SDS011;66044;53.142;17.962;2023-05-18T11:52:05;2.20;;;0.50;;
77018;SDS011;66044;53.142;17.962;2023-05-18T11:54:42;2.80;;;0.60;;
77018;SDS011;66044;53.142;17.962;2023-05-18T11:57:12;3.40;;;0.70;;
77018;SDS011;66044;53.142;17.962;2023-05-18T11:59:41;2.30;;;0.50;;
77018;SDS011;66044;53.142;17.962;2023-05-18T12:02:11;4.50;;;0.80;;
77018;SDS011;66044;53.142;17.962;2023-05-18T12:04:50;5.00;;;0.80;;
77018;SDS011;66044;53.142;17.962;2023-05-18T12:07:18;2.50;;;0.70;;
77018;SDS011;66044;53.142;17.962;2023-05-18T12:09:46;2.50;;;0.50;;
77018;SDS011;66044;53.142;17.962;2023-05-18T12:12:14;5.00;;;0.70;;
77018;SDS011;66044;53.142;17.962;2023-05-18T12:14:46;3.80;;;0.80;;
77018;SDS011;66044;53.142;17.962;2023-05-18T12:17:19;5.40;;;0.90;;
77018;SDS011;66044;53.142;17.962;2023-05-18T12:19:46;3.40;;;0.60;;
77018;SDS011;66044;53.142;17.962;2023-05-18T12:22:14;3.60;;;0.80;;
77018;SDS011;66044;53.142;17.962;2023-05-18T12:24:42;5.10;;;1.30;;
77018;SDS011;66044;53.142;17.962;2023-05-18T12:27:09;5.10;;;1.30;;
77018;SDS011;66044;53.142;17.962;2023-05-18T12:29:38;4.90;;;1.30;;
77018;SDS011;66044;53.142;17.962;2023-05-18T12:32:07;6.90;;;1.50;;
77018;SDS011;66044;53.142;17.962;2023-05-18T12:34:35;3.90;;;0.90;;
77018;SDS011;66044;53.142;17.962;2023-05-18T12:37:02;4.10;;;0.90;;
77018;SDS011;66044;53.142;17.962;2023-05-18T12:39:29;4.30;;;0.80;;
77018;SDS011;66044;53.142;17.962;2023-05-18T12:42:09;3.40;;;0.70;;
77018;SDS011;66044;53.142;17.962;2023-05-18T12:44:36;3.80;;;0.80;;
77018;SDS011;66044;53.142;17.962;2023-05-18T12:47:03;3.30;;;0.70;;
77018;SDS011;66044;53.142;17.962;2023-05-18T12:49:36;3.60;;;0.70;;
77018;SDS011;66044;53.142;17.962;2023-05-18T12:52:11;2.40;;;0.40;;
77018;SDS011;66044;53.142;17.962;2023-05-18T12:54:52;3.90;;;0.70;;
77018;SDS011;66044;53.142;17.962;2023-05-18T12:57:23;3.90;;;0.90;;
77018;SDS011;66044;53.142;17.962;2023-05-18T12:59:55;4.40;;;0.70;;
77018;SDS011;66044;53.142;17.962;2023-05-18T13:07:37;5.20;;;0.80;;
77018;SDS011;66044;53.142;17.962;2023-05-18T13:10:08;2.70;;;0.60;;
77018;SDS011;66044;53.142;17.962;2023-05-18T13:17:37;2.90;;;0.90;;
77018;SDS011;66044;53.142;17.962;2023-05-18T13:20:11;3.50;;;0.80;;
77018;SDS011;66044;53.142;17.962;2023-05-18T13:22:39;6.40;;;2.00;;
77018;SDS011;66044;53.142;17.962;2023-05-18T13:25:06;4.00;;;0.80;;
77018;SDS011;66044;53.142;17.962;2023-05-18T13:27:33;5.40;;;1.20;;
77018;SDS011;66044;53.142;17.962;2023-05-18T13:29:59;4.60;;;1.00;;
77018;SDS011;66044;53.142;17.962;2023-05-18T13:32:26;4.40;;;1.00;;
77018;SDS011;66044;53.142;17.962;2023-05-18T13:34:53;2.90;;;0.70;;
77018;SDS011;66044;53.142;17.962;2023-05-18T13:37:19;3.10;;;0.70;;
77018;SDS011;66044;53.142;17.962;2023-05-18T13:39:46;4.10;;;0.90;;
77018;SDS011;66044;53.142;17.962;2023-05-18T13:42:12;3.80;;;0.70;;
77018;SDS011;66044;53.142;17.962;2023-05-18T13:44:39;4.50;;;0.80;;
77018;SDS011;66044;53.142;17.962;2023-05-18T13:47:05;3.60;;;0.70;;
77018;SDS011;66044;53.142;17.962;2023-05-18T13:49:32;3.70;;;0.70;;
77018;SDS011;66044;53.142;17.962;2023-05-18T13:51:58;3.30;;;0.90;;
77018;SDS011;66044;53.142;17.962;2023-05-18T13:54:25;3.90;;;0.80;;
77018;SDS011;66044;53.142;17.962;2023-05-18T13:56:51;2.80;;;0.60;;
77018;SDS011;66044;53.142;17.962;2023-05-18T13:59:18;3.10;;;0.60;;
77018;SDS011;66044;53.142;17.962;2023-05-18T14:01:44;5.40;;;0.90;;
77018;SDS011;66044;53.142;17.962;2023-05-18T14:04:12;4.10;;;1.00;;
77018;SDS011;66044;53.142;17.962;2023-05-18T14:06:39;3.90;;;0.90;;
77018;SDS011;66044;53.142;17.962;2023-05-18T14:09:05;4.40;;;0.90;;
77018;SDS011;66044;53.142;17.962;2023-05-18T14:11:32;4.70;;;0.70;;
77018;SDS011;66044;53.142;17.962;2023-05-18T14:13:59;3.10;;;0.60;;
77018;SDS011;66044;53.142;17.962;2023-05-18T14:16:26;4.30;;;0.80;;
77018;SDS011;66044;53.142;17.962;2023-05-18T14:18:53;5.90;;;0.90;;
77018;SDS011;66044;53.142;17.962;2023-05-18T14:21:20;3.40;;;0.80;;
77018;SDS011;66044;53.142;17.962;2023-05-18T14:23:47;2.80;;;0.60;;
77018;SDS011;66044;53.142;17.962;2023-05-18T14:26:13;2.60;;;0.60;;
77018;SDS011;66044;53.142;17.962;2023-05-18T14:28:39;4.20;;;1.00;;
77018;SDS011;66044;53.142;17.962;2023-05-18T14:31:06;4.20;;;0.90;;
77018;SDS011;66044;53.142;17.962;2023-05-18T14:33:32;3.90;;;0.80;;
77018;SDS011;66044;53.142;17.962;2023-05-18T14:35:59;4.90;;;0.80;;
77018;SDS011;66044;53.142;17.962;2023-05-18T14:38:26;1.90;;;0.40;;
77018;SDS011;66044;53.142;17.962;2023-05-18T14:40:52;4.40;;;0.70;;
77018;SDS011;66044;53.142;17.962;2023-05-18T14:43:18;4.30;;;0.60;;
77018;SDS011;66044;53.142;17.962;2023-05-18T14:45:45;3.20;;;0.70;;
77018;SDS011;66044;53.142;17.962;2023-05-18T14:48:12;3.70;;;0.60;;
77018;SDS011;66044;53.142;17.962;2023-05-18T14:50:38;2.40;;;0.60;;
77018;SDS011;66044;53.142;17.962;2023-05-18T14:53:04;3.60;;;0.80;;
77018;SDS011;66044;53.142;17.962;2023-05-18T14:55:31;3.20;;;0.60;;
77018;SDS011;66044;53.142;17.962;2023-05-18T14:57:57;3.90;;;0.60;;
77018;SDS011;66044;53.142;17.962;2023-05-18T15:00:27;3.00;;;0.70;;
77018;SDS011;66044;53.142;17.962;2023-05-18T15:02:54;3.20;;;0.50;;
77018;SDS011;66044;53.142;17.962;2023-05-18T15:05:21;6.30;;;0.90;;
77018;SDS011;66044;53.142;17.962;2023-05-18T15:07:48;3.30;;;0.70;;
77018;SDS011;66044;53.142;17.962;2023-05-18T15:10:14;3.50;;;0.50;;
77018;SDS011;66044;53.142;17.962;2023-05-18T15:12:41;3.60;;;0.60;;
77018;SDS011;66044;53.142;17.962;2023-05-18T15:15:07;5.00;;;0.80;;
77018;SDS011;66044;53.142;17.962;2023-05-18T15:17:34;6.00;;;1.30;;
77018;SDS011;66044;53.142;17.962;2023-05-18T15:20:04;4.10;;;0.90;;